Time;durP1;ratioP1;P1;durP2;ratioP2;P2;SDS_P1;SDS_P2;PMS_P1;PMS_P2;Temp;Humidity;BMP_temperature;BMP_pressure;BME280_temperature;BME280_humidity;BME280_pressure;Samples;Min_cycle;Max_cycle;Signal;HPM_P1;HPM_P2
2021/03/30 00:00:26;;;;;;;30.88;19.35;;;;;;;8.25;57.06;102053.76;1764130;79;22932;-59
2021/03/30 00:02:55;;;;;;;30.05;18.40;;;;;;;8.23;57.12;102054.29;1771615;79;21410;-59
2021/03/30 00:05:22;;;;;;;29.85;20.15;;;;;;;8.22;57.37;102053.92;1778107;80;21109;-58
2021/03/30 00:07:50;;;;;;;30.23;20.08;;;;;;;8.18;57.41;102053.64;1705768;83;21217;-58
2021/03/30 00:10:23;;;;;;;34.67;20.05;;;;;;;8.15;57.45;102047.21;1771961;79;21161;-58
2021/03/30 00:12:50;;;;;;;28.35;19.32;;;;;;;8.13;57.33;102045.12;1768006;80;22281;-58
2021/03/30 00:15:18;;;;;;;25.45;18.95;;;;;;;8.11;57.33;102039.09;1706044;83;21136;-58
2021/03/30 00:17:46;;;;;;;30.45;19.30;;;;;;;8.10;57.61;102042.63;1770134;79;21183;-59
2021/03/30 00:20:15;;;;;;;31.80;18.37;;;;;;;8.10;57.79;102043.50;1703034;82;21160;-58
2021/03/30 00:22:44;;;;;;;30.05;18.95;;;;;;;8.11;57.82;102051.73;1765406;80;21638;-58
2021/03/30 00:25:13;;;;;;;30.62;20.55;;;;;;;8.10;57.72;102045.25;1765703;80;21376;-58
2021/03/30 00:27:41;;;;;;;35.68;21.70;;;;;;;8.09;57.64;102051.43;1697170;83;21151;-58
2021/03/30 00:30:13;;;;;;;35.55;19.50;;;;;;;8.09;57.60;102052.74;1765439;79;21164;-59
2021/03/30 00:32:41;;;;;;;29.25;19.70;;;;;;;8.09;57.52;102048.80;1762911;79;21200;-59
2021/03/30 00:35:10;;;;;;;30.65;20.75;;;;;;;8.09;57.56;102044.88;1767166;80;21156;-59
2021/03/30 00:37:38;;;;;;;29.75;19.42;;;;;;;8.08;57.92;102046.63;1764396;79;22276;-59
2021/03/30 00:40:09;;;;;;;31.27;20.17;;;;;;;8.08;58.10;102049.71;1766623;79;21624;-59
2021/03/30 00:42:37;;;;;;;30.95;19.40;;;;;;;8.07;57.96;102050.62;1762574;79;21136;-60
2021/03/30 00:45:08;;;;;;;26.85;19.17;;;;;;;8.06;57.88;102046.31;1707429;82;21638;-59
2021/03/30 00:47:38;;;;;;;28.52;19.60;;;;;;;8.05;57.94;102049.38;1696200;82;21186;-59
2021/03/30 00:50:09;;;;;;;29.35;18.75;;;;;;;8.04;58.04;102059.95;1690437;82;21457;-59
2021/03/30 00:52:37;;;;;;;30.88;19.10;;;;;;;8.00;58.21;102059.20;1763537;79;21176;-59
2021/03/30 00:55:17;;;;;;;31.50;19.90;;;;;;;7.99;58.24;102059.67;1866645;75;22848;-59
2021/03/30 00:57:46;;;;;;;27.22;18.80;;;;;;;7.94;58.30;102059.48;1808913;77;21507;-59
2021/03/30 01:00:15;;;;;;;25.17;16.35;;;;;;;7.94;58.43;102057.70;1804075;77;21724;-59
2021/03/30 01:02:43;;;;;;;27.48;17.57;;;;;;;7.99;58.38;102045.72;1829678;76;21170;-58
2021/03/30 01:05:12;;;;;;;27.73;18.12;;;;;;;8.11;58.14;102046.50;1825283;77;22428;-57
2021/03/30 01:08:10;;;;;;;26.20;16.75;;;;;;;8.23;58.05;102050.36;1824809;76;21161;-57
2021/03/30 01:10:49;;;;;;;29.15;18.73;;;;;;;8.32;57.75;102042.10;1759990;77;21184;-58
2021/03/30 01:13:41;;;;;;;28.12;18.95;;;;;;;8.41;57.59;102049.17;1822454;76;21687;-57
2021/03/30 01:16:11;;;;;;;31.42;18.65;;;;;;;8.43;57.57;102043.42;1806084;78;21121;-58
2021/03/30 01:19:11;;;;;;;27.75;18.60;;;;;;;8.44;57.47;102042.05;1783534;78;21496;-58
2021/03/30 01:22:19;;;;;;;27.60;18.15;;;;;;;8.43;57.39;102046.05;1814336;78;21163;-60
2021/03/30 01:28:38;;;;;;;30.10;18.42;;;;;;;8.33;57.54;102049.03;1776667;78;21410;-58
2021/03/30 01:31:06;;;;;;;27.02;18.98;;;;;;;8.26;57.56;102046.30;1807610;77;21143;-59
2021/03/30 01:33:34;;;;;;;29.18;19.12;;;;;;;8.17;57.66;102048.02;1802036;77;21092;-59
2021/03/30 01:36:01;;;;;;;22.87;17.40;;;;;;;8.10;57.81;102047.43;1810247;78;21156;-59
2021/03/30 01:38:29;;;;;;;31.05;18.35;;;;;;;8.06;57.91;102052.87;1808271;78;21148;-59
2021/03/30 01:40:56;;;;;;;26.20;17.35;;;;;;;7.99;58.05;102050.50;1799100;78;22369;-59
2021/03/30 01:43:26;;;;;;;24.67;17.45;;;;;;;7.95;58.07;102054.17;1814810;78;21145;-60
2021/03/30 01:45:55;;;;;;;29.80;18.30;;;;;;;7.92;58.10;102054.30;1793645;79;21139;-59
2021/03/30 01:48:23;;;;;;;25.55;17.32;;;;;;;7.89;58.09;102057.05;1807379;78;21186;-59
2021/03/30 01:50:52;;;;;;;28.67;19.70;;;;;;;7.87;58.09;102066.75;1808790;78;21568;-59
2021/03/30 01:53:23;;;;;;;25.60;18.20;;;;;;;7.84;58.07;102060.32;1806452;78;22331;-60
2021/03/30 01:55:53;;;;;;;25.57;17.23;;;;;;;7.82;58.18;102064.78;1804703;78;21168;-59
2021/03/30 01:58:21;;;;;;;26.30;17.75;;;;;;;7.81;58.26;102059.12;1813487;78;21156;-60
2021/03/30 02:00:50;;;;;;;22.93;15.78;;;;;;;7.81;58.25;102061.75;1806532;78;21195;-59
2021/03/30 02:03:18;;;;;;;25.35;16.55;;;;;;;7.77;58.15;102060.19;1799970;78;21366;-60
2021/03/30 02:05:46;;;;;;;25.12;16.93;;;;;;;7.72;58.41;102059.53;1786846;78;21441;-59
2021/03/30 02:08:13;;;;;;;22.07;16.60;;;;;;;7.69;58.41;102063.11;1814314;78;21167;-59
2021/03/30 02:13:10;;;;;;;29.45;18.65;;;;;;;7.63;58.59;102066.84;1811595;78;21433;-59
2021/03/30 02:15:38;;;;;;;24.50;16.73;;;;;;;7.58;58.58;102062.69;1797008;78;21196;-59
2021/03/30 02:18:09;;;;;;;27.98;16.65;;;;;;;7.56;58.70;102071.08;1799352;78;21441;-58
2021/03/30 02:20:39;;;;;;;27.45;18.10;;;;;;;7.54;58.80;102076.84;1808800;78;21188;-58
2021/03/30 02:23:22;;;;;;;26.82;17.27;;;;;;;7.52;58.91;102074.28;1809150;78;21152;-58
2021/03/30 02:25:57;;;;;;;24.92;17.10;;;;;;;7.52;58.98;102078.20;1806059;77;21607;-58
2021/03/30 02:28:34;;;;;;;;;;;;;;;7.50;59.04;102074.80;1807649;77;21164;-59
2021/03/30 02:30:58;;;;;;;31.45;17.67;;;;;;;7.48;59.14;102074.45;1809999;78;21566;-59
2021/03/30 02:33:27;;;;;;;24.10;16.62;;;;;;;7.42;59.29;102079.49;1809748;78;21145;-59
2021/03/30 02:35:54;;;;;;;28.20;17.35;;;;;;;7.42;59.44;102078.19;1809881;77;21410;-59
2021/03/30 02:38:22;;;;;;;23.92;15.10;;;;;;;7.43;59.52;102074.63;1781714;78;21205;-59
2021/03/30 02:40:52;;;;;;;25.88;15.65;;;;;;;7.50;59.61;102068.26;1812672;77;21430;-59
2021/03/30 02:43:21;;;;;;;25.35;16.15;;;;;;;7.64;59.44;102069.00;1814325;78;21341;-58
2021/03/30 02:45:51;;;;;;;25.25;16.32;;;;;;;7.75;59.25;102074.66;1811596;78;21183;-59
2021/03/30 02:48:19;;;;;;;23.30;16.70;;;;;;;7.83;59.18;102069.55;1816256;78;21129;-59
2021/03/30 02:50:49;;;;;;;26.15;16.12;;;;;;;7.88;58.99;102074.98;1806452;77;21192;-59
2021/03/30 02:53:17;;;;;;;24.20;17.67;;;;;;;7.90;58.93;102075.80;1802649;78;21173;-59
2021/03/30 02:55:45;;;;;;;31.30;17.20;;;;;;;7.92;58.83;102071.34;1803721;77;21615;-59
2021/03/30 02:58:13;;;;;;;24.90;16.50;;;;;;;7.94;58.65;102070.81;1809025;78;21104;-59
2021/03/30 03:00:41;;;;;;;25.95;16.02;;;;;;;7.91;58.60;102070.93;1807552;78;21176;-59
2021/03/30 03:03:10;;;;;;;25.00;16.30;;;;;;;7.90;58.84;102077.55;1810637;77;21109;-59
2021/03/30 03:05:39;;;;;;;26.30;17.30;;;;;;;7.86;58.91;102075.52;1810004;78;21219;-59
2021/03/30 03:08:07;;;;;;;23.38;16.32;;;;;;;7.84;58.89;102075.20;1805016;78;21246;-59
2021/03/30 03:10:36;;;;;;;24.47;16.55;;;;;;;7.83;58.82;102074.80;1802781;78;21188;-59
2021/03/30 03:13:06;;;;;;;25.82;15.95;;;;;;;7.79;58.79;102067.05;1808228;78;21156;-59
2021/03/30 03:15:33;;;;;;;23.80;15.85;;;;;;;7.76;58.72;102076.81;1805708;78;21133;-60
2021/03/30 03:18:01;;;;;;;27.02;16.73;;;;;;;7.74;58.76;102076.88;1805637;78;21160;-60
2021/03/30 03:20:29;;;;;;;24.55;17.50;;;;;;;7.71;58.89;102074.84;1776869;78;21373;-59
2021/03/30 03:22:56;;;;;;;24.67;16.35;;;;;;;7.71;58.97;102076.99;1801278;78;21168;-59
2021/03/30 03:25:24;;;;;;;23.57;16.70;;;;;;;7.73;58.91;102076.94;1801750;77;21125;-59
2021/03/30 03:27:52;;;;;;;29.90;17.25;;;;;;;7.73;59.05;102074.31;1807898;78;21113;-59
2021/03/30 03:30:24;;;;;;;23.65;16.32;;;;;;;7.73;59.13;102076.94;1807329;77;21131;-59
2021/03/30 03:32:52;;;;;;;23.50;15.95;;;;;;;7.73;59.32;102071.70;1795983;78;21556;-59
2021/03/30 03:35:20;;;;;;;25.05;15.78;;;;;;;7.72;59.42;102082.64;1816176;77;21207;-59
2021/03/30 03:37:48;;;;;;;22.65;16.55;;;;;;;7.72;59.43;102077.87;1811062;78;21111;-59
2021/03/30 03:40:17;;;;;;;20.45;14.23;;;;;;;7.71;59.52;102087.48;1833407;77;21124;-59
2021/03/30 03:42:45;;;;;;;24.47;15.28;;;;;;;7.72;59.34;102080.48;1833887;77;21101;-58
2021/03/30 03:45:15;;;;;;;24.75;16.00;;;;;;;7.73;59.17;102086.98;1814142;77;22419;-58
2021/03/30 03:47:43;;;;;;;22.75;16.15;;;;;;;7.75;59.08;102085.14;1807703;78;21569;-59
2021/03/30 03:50:12;;;;;;;25.37;16.00;;;;;;;7.75;59.15;102083.84;1794749;78;21176;-58
2021/03/30 03:52:44;;;;;;;24.23;14.25;;;;;;;7.75;59.39;102085.58;1831264;75;21214;-59
2021/03/30 03:55:13;;;;;;;23.92;15.23;;;;;;;7.82;59.42;102092.30;1843696;77;21162;-58
2021/03/30 03:57:46;;;;;;;21.90;14.40;;;;;;;7.96;59.17;102091.25;1838385;77;21190;-57
2021/03/30 04:00:15;;;;;;;24.50;15.93;;;;;;;8.06;59.03;102096.12;1842181;77;21243;-57
2021/03/30 04:02:59;;;;;;;27.13;16.42;;;;;;;8.10;59.05;102092.44;1806081;77;21098;-57
2021/03/30 04:05:35;;;;;;;29.63;16.93;;;;;;;8.16;59.00;102100.06;1805709;78;21572;-58
2021/03/30 04:08:06;;;;;;;30.65;16.27;;;;;;;8.19;58.83;102097.31;1802437;78;21176;-58
2021/03/30 04:10:34;;;;;;;22.87;15.63;;;;;;;8.19;58.84;102096.00;1824996;77;21369;-57
2021/03/30 04:13:05;;;;;;;24.10;14.98;;;;;;;8.19;58.72;102100.78;1845814;77;21163;-58
2021/03/30 04:15:32;;;;;;;25.60;15.43;;;;;;;8.18;58.53;102102.15;1819536;77;21169;-58
2021/03/30 04:18:00;;;;;;;20.43;14.45;;;;;;;8.17;58.34;102113.11;1840951;77;21117;-58
2021/03/30 04:20:29;;;;;;;20.45;13.18;;;;;;;8.16;58.06;102117.10;1813917;77;21574;-58
2021/03/30 04:22:58;;;;;;;22.58;14.33;;;;;;;8.14;57.89;102115.02;1838429;77;21336;-58
2021/03/30 04:25:27;;;;;;;22.15;15.32;;;;;;;8.13;58.02;102116.76;1811159;77;21165;-59
2021/03/30 04:27:55;;;;;;;28.83;17.40;;;;;;;8.12;58.04;102116.82;1846289;77;21135;-58
2021/03/30 04:30:24;;;;;;;23.75;15.53;;;;;;;8.10;58.17;102115.60;1840405;77;21147;-58
2021/03/30 04:32:52;;;;;;;24.63;15.13;;;;;;;8.06;58.38;102117.09;1828980;77;21167;-57
2021/03/30 04:35:20;;;;;;;26.42;14.73;;;;;;;8.05;58.58;102118.84;1854658;75;21374;-57
2021/03/30 04:37:47;;;;;;;22.05;13.75;;;;;;;8.03;58.71;102119.38;1827011;78;21139;-59
2021/03/30 04:40:16;;;;;;;26.33;16.50;;;;;;;8.04;58.82;102122.87;1841753;77;21136;-58
2021/03/30 04:42:44;;;;;;;24.92;14.93;;;;;;;8.04;58.71;102124.18;1817254;77;21153;-59
2021/03/30 04:45:12;;;;;;;23.07;15.28;;;;;;;8.02;58.73;102124.24;1818707;78;21164;-59
2021/03/30 04:47:40;;;;;;;21.57;14.43;;;;;;;8.00;58.63;102126.05;1807483;76;21199;-64
2021/03/30 04:50:08;;;;;;;23.27;15.75;;;;;;;7.99;58.74;102126.52;1821326;77;21182;-66
2021/03/30 04:52:38;;;;;;;21.82;15.88;;;;;;;8.00;58.87;102128.67;1848501;77;21156;-65
2021/03/30 04:55:08;;;;;;;23.52;15.53;;;;;;;7.97;58.86;102128.83;1799782;77;21100;-67
2021/03/30 04:57:38;;;;;;;26.93;14.93;;;;;;;7.97;58.94;102128.36;1795854;78;21287;-66
2021/03/30 05:00:09;;;;;;;22.50;15.78;;;;;;;7.97;58.68;102135.37;1805174;78;21332;-64
2021/03/30 05:02:37;;;;;;;28.62;15.13;;;;;;;7.98;58.50;102131.38;1801546;77;21182;-65
2021/03/30 05:05:07;;;;;;;20.70;14.50;;;;;;;8.00;58.33;102138.72;1807347;78;21189;-64
2021/03/30 05:07:35;;;;;;;21.50;13.13;;;;;;;8.04;57.93;102140.75;1801033;78;21201;-57
2021/03/30 05:10:05;;;;;;;21.73;14.03;;;;;;;8.07;57.66;102134.52;1787297;78;21196;-59
2021/03/30 05:12:34;;;;;;;18.62;12.58;;;;;;;8.10;57.61;102135.27;1795421;78;21402;-57
2021/03/30 05:15:04;;;;;;;18.40;11.83;;;;;;;8.14;57.68;102137.30;1797319;77;21661;-58
2021/03/30 05:17:34;;;;;;;21.07;12.85;;;;;;;8.19;57.30;102141.89;1801744;77;21132;-58
2021/03/30 05:20:04;;;;;;;18.27;12.10;;;;;;;8.23;56.91;102143.45;1806314;78;21149;-58
2021/03/30 05:22:32;;;;;;;19.15;12.13;;;;;;;8.28;56.71;102151.13;1796400;78;21118;-58
2021/03/30 05:25:01;;;;;;;18.52;12.30;;;;;;;8.31;56.49;102149.23;1802789;77;21358;-58
2021/03/30 05:27:30;;;;;;;18.67;12.53;;;;;;;8.35;56.33;102145.58;1802710;77;21945;-58
2021/03/30 05:29:57;;;;;;;20.90;11.57;;;;;;;8.40;56.05;102149.77;1798740;77;21134;-59
2021/03/30 05:32:25;;;;;;;17.12;11.53;;;;;;;8.43;55.91;102147.89;1796343;77;21482;-59
2021/03/30 05:34:53;;;;;;;15.88;10.65;;;;;;;8.48;55.79;102151.63;1801342;78;21169;-59
2021/03/30 05:37:21;;;;;;;18.05;11.57;;;;;;;8.52;55.29;102145.32;1801646;78;21359;-59
2021/03/30 05:39:49;;;;;;;17.67;10.55;;;;;;;8.56;55.03;102145.60;1793513;77;21233;-59
2021/03/30 05:42:20;;;;;;;17.80;11.03;;;;;;;8.59;54.82;102149.41;1799968;78;21186;-58
2021/03/30 05:44:47;;;;;;;15.72;11.10;;;;;;;8.64;54.55;102151.38;1793868;78;21193;-59
2021/03/30 05:47:17;;;;;;;18.77;10.40;;;;;;;8.68;54.46;102144.21;1797156;77;21168;-59
2021/03/30 05:49:45;;;;;;;18.42;10.78;;;;;;;8.72;53.95;102148.39;1804946;78;21380;-60
2021/03/30 05:52:37;;;;;;;17.77;10.88;;;;;;;8.76;53.43;102149.11;1796149;78;21176;-58
2021/03/30 05:54:59;;;;;;;20.88;10.72;;;;;;;8.81;53.13;102154.56;1796254;78;21192;-58
2021/03/30 05:57:29;;;;;;;20.95;10.23;;;;;;;8.85;52.77;102156.12;1810155;78;21236;-58
2021/03/30 05:59:58;;;;;;;16.48;9.85;;;;;;;8.87;52.59;102154.27;1807545;78;21172;-59
2021/03/30 06:02:43;;;;;;;21.17;11.43;;;;;;;8.88;51.97;102145.48;1806488;78;22729;-62
2021/03/30 06:05:16;;;;;;;16.73;9.30;;;;;;;8.94;51.75;102149.59;1807173;77;21227;-60
2021/03/30 06:07:44;;;;;;;18.80;9.93;;;;;;;9.01;51.68;102148.86;1805636;77;21155;-58
2021/03/30 06:11:25;;;;;;;16.57;9.35;;;;;;;9.11;51.16;102154.08;1828589;75;22533;-59
2021/03/30 06:13:55;;;;;;;16.20;9.98;;;;;;;9.13;50.74;102156.64;1774246;79;21456;-59
2021/03/30 06:16:37;;;;;;;17.82;8.70;;;;;;;9.21;50.81;102157.15;1798066;78;21396;-59
2021/03/30 06:19:17;;;;;;;16.60;8.55;;;;;;;9.28;50.50;102154.18;1797929;77;21073;-59
2021/03/30 06:21:55;;;;;;;13.62;7.95;;;;;;;9.35;50.17;102147.34;1797125;77;21212;-59
2021/03/30 06:24:27;;;;;;;13.53;8.30;;;;;;;9.39;50.15;102151.52;1788718;79;21097;-58
2021/03/30 06:27:13;;;;;;;14.55;7.85;;;;;;;9.42;49.95;102157.47;1798136;78;20989;-59
2021/03/30 06:29:41;;;;;;;14.70;8.68;;;;;;;9.46;49.56;102152.48;1799938;78;22065;-59
2021/03/30 06:32:15;;;;;;;12.95;8.03;;;;;;;9.56;49.30;102152.88;1749128;79;21230;-59
2021/03/30 06:34:46;;;;;;;14.87;8.28;;;;;;;9.64;48.88;102154.67;1746418;79;21191;-59
2021/03/30 06:37:28;;;;;;;13.25;8.08;;;;;;;9.72;48.80;102158.27;1806847;79;21643;-59
2021/03/30 06:40:09;;;;;;;14.50;8.15;;;;;;;9.80;48.60;102152.62;1785678;79;21187;-59
2021/03/30 06:42:54;;;;;;;12.98;8.08;;;;;;;9.89;48.14;102157.91;1798917;77;22209;-59
2021/03/30 06:45:30;;;;;;;18.05;7.62;;;;;;;9.96;48.08;102162.78;1795778;79;21343;-60
2021/03/30 06:48:02;;;;;;;10.93;6.70;;;;;;;10.04;48.13;102162.42;1798168;79;21155;-60
2021/03/30 06:50:35;;;;;;;14.80;7.67;;;;;;;10.12;47.66;102163.33;1794871;78;21434;-59
2021/03/30 06:53:14;;;;;;;12.28;7.87;;;;;;;10.23;47.70;102162.34;1774374;79;21104;-59
2021/03/30 06:55:49;;;;;;;13.08;8.33;;;;;;;10.30;47.52;102160.26;1743650;81;21285;-59
2021/03/30 06:58:18;;;;;;;15.80;10.15;;;;;;;10.37;47.16;102165.62;1714300;81;21183;-59
2021/03/30 07:00:46;;;;;;;14.53;9.83;;;;;;;10.43;46.56;102168.42;1801307;77;21200;-59
2021/03/30 07:03:20;;;;;;;14.03;8.75;;;;;;;10.49;46.79;102172.03;1800875;79;21228;-59
2021/03/30 07:05:50;;;;;;;15.68;8.23;;;;;;;10.54;47.00;102169.58;1775812;79;21211;-60
2021/03/30 07:08:19;;;;;;;13.08;8.23;;;;;;;10.60;46.69;102178.45;1771385;79;21226;-60
2021/03/30 07:10:52;;;;;;;13.28;7.72;;;;;;;10.66;45.90;102181.70;1801330;78;21195;-60
2021/03/30 07:13:22;;;;;;;13.18;8.18;;;;;;;10.73;45.69;102184.42;1793950;79;21191;-60
2021/03/30 07:16:01;;;;;;;16.17;9.35;;;;;;;10.77;45.80;102182.00;1794881;79;21188;-59
2021/03/30 07:18:42;;;;;;;13.83;6.87;;;;;;;10.83;45.66;102186.95;1769585;79;21645;-58
2021/03/30 07:21:20;;;;;;;10.58;6.58;;;;;;;10.90;44.73;102190.96;1735848;80;21223;-58
2021/03/30 07:23:59;;;;;;;15.28;8.38;;;;;;;10.94;43.69;102190.33;1742371;80;21178;-58
2021/03/30 07:26:38;;;;;;;12.13;7.15;;;;;;;11.00;43.48;102185.22;1741082;81;21217;-59
2021/03/30 07:29:13;;;;;;;12.40;7.83;;;;;;;11.06;43.70;102183.56;1793338;79;21681;-59
2021/03/30 07:35:16;;;;;;;13.08;6.83;;;;;;;11.27;41.45;102181.09;1743301;80;22998;-59
2021/03/30 07:38:11;;;;;;;12.93;6.83;;;;;;;11.31;41.46;102184.41;1717106;81;21218;-60
2021/03/30 07:40:41;;;;;;;10.63;6.97;;;;;;;11.42;41.09;102186.47;1729354;81;21228;-59
2021/03/30 07:43:12;;;;;;;12.35;6.95;;;;;;;11.53;41.16;102184.08;1721964;81;22241;-58
2021/03/30 07:45:42;;;;;;;13.55;6.97;;;;;;;11.64;39.91;102192.25;1727438;81;21526;-58
2021/03/30 07:48:15;;;;;;;14.25;8.55;;;;;;;11.71;39.30;102183.05;1746208;78;21211;-59
2021/03/30 07:53:50;;;;;;;10.60;5.75;;;;;;;11.86;38.30;102180.02;1754889;78;23432;-59
2021/03/30 07:56:32;;;;;;;10.45;6.35;;;;;;;11.90;38.72;102185.97;1734812;80;26400;-59
2021/03/30 07:58:59;;;;;;;8.53;5.45;;;;;;;12.00;39.04;102177.97;1723550;81;21218;-58
2021/03/30 08:01:30;;;;;;;8.75;5.22;;;;;;;12.15;38.34;102181.95;1730452;80;21677;-58
2021/03/30 08:04:02;;;;;;;11.12;5.00;;;;;;;12.27;37.08;102189.15;1700664;82;21215;-59
2021/03/30 08:06:37;;;;;;;12.15;6.22;;;;;;;12.38;36.23;102184.10;1725625;82;21294;-59
2021/03/30 08:09:14;;;;;;;14.03;7.00;;;;;;;12.51;35.96;102183.36;1732091;82;21208;-59
2021/03/30 08:11:48;;;;;;;;;;;;;;;12.58;36.26;102182.92;1701639;82;21138;-60
2021/03/30 08:14:30;;;;;;;9.83;5.05;;;;;;;12.64;36.47;102186.97;1728749;80;20331;-58
2021/03/30 08:17:01;;;;;;;7.33;3.70;;;;;;;12.66;36.19;102186.88;1729368;81;21188;-59
2021/03/30 08:19:31;;;;;;;9.65;4.42;;;;;;;12.71;35.05;102183.05;1725543;82;21642;-59
2021/03/30 08:22:04;;;;;;;10.82;4.10;;;;;;;12.76;34.38;102177.01;1701025;82;21207;-59
2021/03/30 08:24:50;;;;;;;19.50;3.83;;;;;;;12.81;33.92;102175.41;1725154;81;21224;-58
2021/03/30 08:27:36;;;;;;;7.80;3.80;;;;;;;12.86;33.29;102165.86;1729345;80;21231;-59
2021/03/30 08:30:27;;;;;;;8.73;3.33;;;;;;;12.87;33.69;102168.89;1731668;80;21394;-58
2021/03/30 08:32:58;;;;;;;10.32;4.20;;;;;;;12.90;33.62;102168.23;1709915;82;21235;-57
2021/03/30 08:35:34;;;;;;;8.28;3.40;;;;;;;12.93;33.26;102157.96;1681139;82;21148;-59
2021/03/30 08:38:04;;;;;;;8.03;3.60;;;;;;;12.98;32.69;102163.81;1732595;81;21216;-59
2021/03/30 08:40:40;;;;;;;12.53;4.15;;;;;;;13.03;32.66;102160.86;1730214;82;21183;-62
2021/03/30 08:43:20;;;;;;;8.40;4.10;;;;;;;13.07;32.35;102155.30;1731160;81;21183;-60
2021/03/30 08:46:09;;;;;;;11.80;4.87;;;;;;;13.12;32.48;102154.53;1729834;82;21227;-58
2021/03/30 08:48:48;;;;;;;8.48;3.83;;;;;;;13.16;31.71;102157.38;1693931;82;21195;-57
2021/03/30 08:51:19;;;;;;;9.00;4.12;;;;;;;13.18;31.31;102155.96;1728464;82;21442;-57
2021/03/30 08:53:47;;;;;;;9.10;4.03;;;;;;;13.22;31.14;102161.91;1695785;82;21209;-58
2021/03/30 08:56:27;;;;;;;9.93;4.08;;;;;;;13.26;30.96;102159.42;1700888;82;21563;-59
2021/03/30 08:58:57;;;;;;;10.43;3.95;;;;;;;13.28;30.95;102158.84;1685506;82;21204;-59
2021/03/30 09:01:25;;;;;;;13.55;5.08;;;;;;;13.27;31.01;102155.85;1719174;82;21499;-59
2021/03/30 09:03:55;;;;;;;12.95;4.80;;;;;;;13.31;31.36;102158.66;1726293;82;21243;-73
2021/03/30 09:06:37;;;;;;;9.75;4.33;;;;;;;13.37;30.54;102159.64;1693089;80;21211;-59
2021/03/30 09:09:23;;;;;;;10.50;4.70;;;;;;;13.37;30.83;102154.34;1645994;85;21579;-58
2021/03/30 09:11:51;;;;;;;9.23;4.03;;;;;;;13.40;30.50;102158.13;1671456;84;22564;-58
2021/03/30 09:14:21;;;;;;;7.75;3.58;;;;;;;13.43;30.49;102159.70;1671540;84;21208;-58
2021/03/30 09:16:51;;;;;;;7.65;3.87;;;;;;;13.44;29.80;102156.97;1664739;84;21227;-58
2021/03/30 09:22:26;;;;;;;13.45;5.05;;;;;;;13.53;30.06;102148.45;1869414;74;22681;-57
2021/03/30 09:27:07;;;;;;;12.25;4.70;;;;;;;13.58;30.02;102145.98;1836964;75;21521;-57
2021/03/30 09:29:36;;;;;;;10.43;5.17;;;;;;;13.61;29.98;102147.11;1841188;76;21189;-57
2021/03/30 09:32:09;;;;;;;9.58;4.42;;;;;;;13.63;29.72;102143.39;1840975;75;22891;-56
2021/03/30 09:34:39;;;;;;;8.95;3.77;;;;;;;13.65;29.87;102140.20;1789686;76;21179;-59
2021/03/30 09:37:07;;;;;;;9.40;4.85;;;;;;;13.72;30.09;102146.78;1841097;75;21582;-58
2021/03/30 09:39:36;;;;;;;14.15;4.42;;;;;;;13.82;30.22;102147.48;1835467;75;21189;-58
2021/03/30 09:42:05;;;;;;;8.60;4.90;;;;;;;13.90;30.01;102149.16;1838791;75;21167;-58
2021/03/30 09:44:43;;;;;;;17.05;4.90;;;;;;;13.97;30.09;102139.88;1836054;77;20989;-58
2021/03/30 09:47:14;;;;;;;12.25;4.42;;;;;;;14.02;29.83;102132.94;1842607;75;21143;-58
2021/03/30 09:49:43;;;;;;;8.23;3.90;;;;;;;14.07;29.98;102130.83;1749766;79;21122;-59
2021/03/30 09:52:13;;;;;;;8.08;4.37;;;;;;;14.14;30.04;102128.16;1779342;78;21594;-58
2021/03/30 09:54:44;;;;;;;9.00;4.33;;;;;;;14.24;29.86;102130.55;1737930;79;21626;-57
2021/03/30 09:57:15;;;;;;;8.25;3.80;;;;;;;14.30;29.25;102126.14;1748421;80;21661;-59
2021/03/30 09:59:48;;;;;;;8.08;3.15;;;;;;;14.34;29.24;102124.62;1776314;78;21537;-58
2021/03/30 10:02:19;;;;;;;9.40;4.47;;;;;;;14.33;29.56;102126.91;1808835;77;21200;-59
2021/03/30 10:04:54;;;;;;;14.28;6.22;;;;;;;14.37;29.56;102121.77;1775306;78;21232;-58
2021/03/30 10:07:27;;;;;;;11.80;5.55;;;;;;;14.41;29.34;102121.45;1799724;77;21211;-62
2021/03/30 10:10:12;;;;;;;11.65;5.83;;;;;;;14.47;29.24;102122.83;1795482;79;21211;-58
2021/03/30 10:12:55;;;;;;;10.45;5.47;;;;;;;14.48;29.53;102125.37;1805331;77;21180;-57
2021/03/30 10:15:40;;;;;;;13.22;7.47;;;;;;;14.50;29.33;102117.32;1797202;79;21196;-59
2021/03/30 10:18:10;;;;;;;12.43;5.85;;;;;;;14.52;29.63;102111.44;1798644;79;21362;-58
2021/03/30 10:20:52;;;;;;;10.60;5.00;;;;;;;14.58;29.37;102114.16;1795848;77;21191;-58
2021/03/30 10:23:25;;;;;;;9.33;4.37;;;;;;;14.62;29.63;102107.70;1770394;80;21216;-58
2021/03/30 10:25:55;;;;;;;;;;;;;;;14.67;29.47;102106.91;1769401;79;21208;-59
2021/03/30 10:28:30;;;;;;;11.35;5.22;;;;;;;14.72;29.02;102102.62;1777304;79;20285;-58
2021/03/30 10:31:21;;;;;;;12.77;5.77;;;;;;;14.68;29.76;102100.67;1747444;80;21467;-59
2021/03/30 10:33:48;;;;;;;9.50;5.00;;;;;;;14.75;29.09;102103.24;1766163;79;21818;-62
2021/03/30 10:36:14;;;;;;;11.88;5.37;;;;;;;14.76;29.89;102100.11;1774660;79;21560;-60
2021/03/30 10:39:06;;;;;;;9.55;4.70;;;;;;;14.80;29.56;102098.95;1739532;80;21587;-60
2021/03/30 10:41:37;;;;;;;8.05;5.03;;;;;;;14.84;29.42;102098.64;1772106;79;21618;-58
2021/03/30 10:44:17;;;;;;;9.68;5.20;;;;;;;14.89;29.16;102099.61;1776845;79;21172;-60
2021/03/30 10:46:45;;;;;;;10.45;5.10;;;;;;;14.91;29.25;102088.45;1791907;79;21614;-59
2021/03/30 10:49:15;;;;;;;9.60;5.03;;;;;;;14.95;29.50;102087.75;1794515;79;21626;-61
2021/03/30 10:51:45;;;;;;;9.05;4.67;;;;;;;14.97;29.11;102080.03;1774668;79;21155;-59
2021/03/30 10:54:19;;;;;;;9.80;5.60;;;;;;;15.01;29.54;102080.66;1798645;78;21188;-59
2021/03/30 10:56:44;;;;;;;8.50;5.17;;;;;;;15.07;29.45;102075.41;1795867;79;23179;-62
2021/03/30 10:59:15;;;;;;;10.72;5.70;;;;;;;15.10;28.95;102072.05;1745515;80;21538;-58
2021/03/30 11:01:43;;;;;;;10.25;5.62;;;;;;;15.17;29.00;102075.11;1769961;79;21221;-60
2021/03/30 11:04:10;;;;;;;9.68;5.45;;;;;;;15.21;28.93;102069.94;1762414;80;21680;-61
2021/03/30 11:06:42;;;;;;;12.35;5.85;;;;;;;15.24;28.78;102067.06;1798666;77;21209;-61
2021/03/30 11:09:09;;;;;;;10.48;6.42;;;;;;;15.31;29.23;102062.16;1740934;80;21228;-60
2021/03/30 11:11:37;;;;;;;10.23;6.05;;;;;;;15.38;29.08;102062.06;1759064;79;21228;-60
2021/03/30 11:14:07;;;;;;;12.93;5.53;;;;;;;15.45;28.85;102060.67;1776030;79;21208;-61
2021/03/30 11:16:37;;;;;;;11.28;5.65;;;;;;;15.51;29.24;102060.69;1772517;79;21209;-61
2021/03/30 11:19:06;;;;;;;15.25;6.70;;;;;;;15.58;28.85;102049.52;1748594;80;21211;-61
2021/03/30 11:21:35;;;;;;;14.85;6.30;;;;;;;15.65;28.69;102059.19;1775118;79;21208;-60
2021/03/30 11:24:06;;;;;;;13.70;6.20;;;;;;;15.68;29.10;102050.14;1763473;80;21198;-60
2021/03/30 11:26:36;;;;;;;17.30;6.62;;;;;;;15.78;29.00;102056.47;1769181;80;21115;-61
2021/03/30 11:29:08;;;;;;;13.68;6.08;;;;;;;15.86;28.99;102055.41;1770808;80;21163;-62
2021/03/30 11:34:28;;;;;;;12.43;6.20;;;;;;;15.99;29.07;102047.37;1766723;80;22132;-61
2021/03/30 11:37:08;;;;;;;14.40;6.50;;;;;;;16.05;28.73;102049.53;1768170;80;21214;-64
2021/03/30 11:39:25;;;;;;;11.33;5.90;;;;;;;16.08;29.11;102043.99;1766012;80;21177;-61
2021/03/30 11:41:55;;;;;;;14.00;6.10;;;;;;;16.13;28.74;102035.19;1740612;80;21214;-60
2021/03/30 11:44:23;;;;;;;13.20;6.05;;;;;;;16.22;28.68;102032.30;1771737;80;21099;-60
2021/03/30 11:46:51;;;;;;;11.97;7.10;;;;;;;16.30;29.07;102031.22;1772732;80;21202;-63
2021/03/30 11:49:18;;;;;;;12.98;6.47;;;;;;;16.41;28.69;102026.87;1749755;81;21618;-61
2021/03/30 11:51:46;;;;;;;11.50;6.33;;;;;;;16.48;28.50;102032.08;1759103;80;21139;-59
2021/03/30 11:54:14;;;;;;;10.30;6.65;;;;;;;16.50;28.78;102028.32;1773101;80;21092;-60
2021/03/30 11:56:43;;;;;;;11.35;6.45;;;;;;;16.48;28.44;102024.95;1768641;80;21142;-56
2021/03/30 11:59:11;;;;;;;10.58;6.70;;;;;;;16.48;28.66;102022.29;1749998;80;21162;-59
2021/03/30 12:01:38;;;;;;;11.93;6.35;;;;;;;16.50;28.66;102017.69;1763818;78;21190;-59